sensor_id;sensor_type;location;lat;lon;timestamp;P1;durP1;ratioP1;P2;durP2;ratioP2
60318;SDS011;46163;52.306;5.634;2022-12-18T00:00:56;3.95;;;3.17;;
60318;SDS011;46163;52.306;5.634;2022-12-18T00:03:22;5.15;;;3.30;;
60318;SDS011;46163;52.306;5.634;2022-12-18T00:05:51;4.07;;;2.97;;
60318;SDS011;46163;52.306;5.634;2022-12-18T00:08:17;4.57;;;3.03;;
60318;SDS011;46163;52.306;5.634;2022-12-18T00:10:43;4.72;;;3.33;;
60318;SDS011;46163;52.306;5.634;2022-12-18T00:13:10;4.30;;;3.05;;
60318;SDS011;46163;52.306;5.634;2022-12-18T00:15:37;4.03;;;3.20;;
60318;SDS011;46163;52.306;5.634;2022-12-18T00:18:04;3.78;;;3.05;;
60318;SDS011;46163;52.306;5.634;2022-12-18T00:20:29;4.05;;;3.28;;
60318;SDS011;46163;52.306;5.634;2022-12-18T00:22:55;3.38;;;2.95;;
60318;SDS011;46163;52.306;5.634;2022-12-18T00:25:21;5.82;;;2.97;;
60318;SDS011;46163;52.306;5.634;2022-12-18T00:27:47;4.63;;;3.05;;
60318;SDS011;46163;52.306;5.634;2022-12-18T00:30:13;3.60;;;2.78;;
60318;SDS011;46163;52.306;5.634;2022-12-18T00:32:38;3.55;;;3.00;;
60318;SDS011;46163;52.306;5.634;2022-12-18T00:35:04;4.20;;;3.00;;
60318;SDS011;46163;52.306;5.634;2022-12-18T00:37:31;4.20;;;3.30;;
60318;SDS011;46163;52.306;5.634;2022-12-18T00:42:24;3.85;;;2.80;;
60318;SDS011;46163;52.306;5.634;2022-12-18T00:45:08;3.33;;;2.78;;
60318;SDS011;46163;52.306;5.634;2022-12-18T00:47:34;3.13;;;2.42;;
60318;SDS011;46163;52.306;5.634;2022-12-18T00:49:59;3.08;;;2.58;;
60318;SDS011;46163;52.306;5.634;2022-12-18T00:52:25;3.53;;;2.90;;
60318;SDS011;46163;52.306;5.634;2022-12-18T00:54:51;3.55;;;2.90;;
60318;SDS011;46163;52.306;5.634;2022-12-18T00:57:16;3.83;;;2.67;;
60318;SDS011;46163;52.306;5.634;2022-12-18T00:59:41;3.28;;;2.47;;
60318;SDS011;46163;52.306;5.634;2022-12-18T01:02:07;3.70;;;3.10;;
60318;SDS011;46163;52.306;5.634;2022-12-18T01:04:33;3.05;;;2.63;;
60318;SDS011;46163;52.306;5.634;2022-12-18T01:06:59;3.30;;;2.80;;
60318;SDS011;46163;52.306;5.634;2022-12-18T01:09:25;3.67;;;2.80;;
60318;SDS011;46163;52.306;5.634;2022-12-18T01:11:51;4.53;;;3.08;;
60318;SDS011;46163;52.306;5.634;2022-12-18T01:14:16;3.70;;;2.72;;
60318;SDS011;46163;52.306;5.634;2022-12-18T01:16:42;3.22;;;2.65;;
60318;SDS011;46163;52.306;5.634;2022-12-18T01:19:08;3.92;;;2.92;;
60318;SDS011;46163;52.306;5.634;2022-12-18T01:21:33;3.75;;;2.58;;
60318;SDS011;46163;52.306;5.634;2022-12-18T01:23:59;3.95;;;2.70;;
60318;SDS011;46163;52.306;5.634;2022-12-18T01:26:24;3.30;;;2.72;;
60318;SDS011;46163;52.306;5.634;2022-12-18T01:28:51;3.75;;;2.80;;
60318;SDS011;46163;52.306;5.634;2022-12-18T01:31:18;3.50;;;2.55;;
60318;SDS011;46163;52.306;5.634;2022-12-18T01:33:49;3.78;;;2.95;;
60318;SDS011;46163;52.306;5.634;2022-12-18T01:39:20;2.85;;;2.38;;
60318;SDS011;46163;52.306;5.634;2022-12-18T01:41:46;3.60;;;3.10;;
60318;SDS011;46163;52.306;5.634;2022-12-18T01:50:13;3.35;;;2.78;;
60318;SDS011;46163;52.306;5.634;2022-12-18T01:55:22;3.20;;;2.80;;
60318;SDS011;46163;52.306;5.634;2022-12-18T01:57:51;2.72;;;2.42;;
60318;SDS011;46163;52.306;5.634;2022-12-18T02:00:20;2.72;;;2.50;;
60318;SDS011;46163;52.306;5.634;2022-12-18T02:02:46;3.40;;;2.60;;
60318;SDS011;46163;52.306;5.634;2022-12-18T02:05:17;3.60;;;3.00;;
60318;SDS011;46163;52.306;5.634;2022-12-18T02:07:56;3.35;;;2.75;;
60318;SDS011;46163;52.306;5.634;2022-12-18T02:13:10;3.75;;;3.00;;
60318;SDS011;46163;52.306;5.634;2022-12-18T02:18:32;2.97;;;2.42;;
60318;SDS011;46163;52.306;5.634;2022-12-18T02:26:34;3.08;;;2.58;;
60318;SDS011;46163;52.306;5.634;2022-12-18T02:29:06;3.38;;;2.80;;
60318;SDS011;46163;52.306;5.634;2022-12-18T02:31:36;3.08;;;2.60;;
60318;SDS011;46163;52.306;5.634;2022-12-18T02:34:14;3.47;;;2.67;;
60318;SDS011;46163;52.306;5.634;2022-12-18T02:36:41;3.53;;;2.75;;
60318;SDS011;46163;52.306;5.634;2022-12-18T02:39:12;3.13;;;2.65;;
60318;SDS011;46163;52.306;5.634;2022-12-18T02:41:41;3.72;;;2.80;;
60318;SDS011;46163;52.306;5.634;2022-12-18T02:44:08;3.15;;;2.63;;
60318;SDS011;46163;52.306;5.634;2022-12-18T02:46:36;2.88;;;2.55;;
60318;SDS011;46163;52.306;5.634;2022-12-18T02:58:12;2.58;;;2.38;;
60318;SDS011;46163;52.306;5.634;2022-12-18T03:00:51;2.88;;;2.58;;
60318;SDS011;46163;52.306;5.634;2022-12-18T03:03:36;3.28;;;2.70;;
60318;SDS011;46163;52.306;5.634;2022-12-18T03:06:08;3.03;;;2.60;;
60318;SDS011;46163;52.306;5.634;2022-12-18T03:08:44;4.10;;;2.88;;
60318;SDS011;46163;52.306;5.634;2022-12-18T03:11:13;3.28;;;2.60;;
60318;SDS011;46163;52.306;5.634;2022-12-18T03:13:57;3.38;;;2.72;;
60318;SDS011;46163;52.306;5.634;2022-12-18T03:16:25;2.78;;;2.38;;
60318;SDS011;46163;52.306;5.634;2022-12-18T03:18:55;3.05;;;2.55;;
60318;SDS011;46163;52.306;5.634;2022-12-18T03:21:28;3.25;;;2.45;;
60318;SDS011;46163;52.306;5.634;2022-12-18T03:23:58;3.13;;;2.60;;
60318;SDS011;46163;52.306;5.634;2022-12-18T03:26:25;2.53;;;2.33;;
60318;SDS011;46163;52.306;5.634;2022-12-18T03:28:53;3.20;;;2.60;;
60318;SDS011;46163;52.306;5.634;2022-12-18T03:31:24;3.65;;;2.20;;
60318;SDS011;46163;52.306;5.634;2022-12-18T03:33:54;3.60;;;2.42;;
60318;SDS011;46163;52.306;5.634;2022-12-18T03:36:25;2.70;;;2.33;;
60318;SDS011;46163;52.306;5.634;2022-12-18T03:38:52;2.75;;;2.40;;
60318;SDS011;46163;52.306;5.634;2022-12-18T03:47:07;2.70;;;2.40;;
60318;SDS011;46163;52.306;5.634;2022-12-18T03:49:38;3.50;;;2.35;;
60318;SDS011;46163;52.306;5.634;2022-12-18T03:52:35;2.60;;;2.40;;
60318;SDS011;46163;52.306;5.634;2022-12-18T03:55:03;3.13;;;2.40;;
60318;SDS011;46163;52.306;5.634;2022-12-18T03:57:32;3.50;;;2.47;;
60318;SDS011;46163;52.306;5.634;2022-12-18T04:00:00;3.30;;;2.38;;
60318;SDS011;46163;52.306;5.634;2022-12-18T04:02:31;3.70;;;2.60;;
60318;SDS011;46163;52.306;5.634;2022-12-18T04:04:59;2.35;;;2.15;;
60318;SDS011;46163;52.306;5.634;2022-12-18T04:07:29;2.47;;;2.20;;
60318;SDS011;46163;52.306;5.634;2022-12-18T04:09:55;3.05;;;2.42;;
60318;SDS011;46163;52.306;5.634;2022-12-18T04:12:26;2.72;;;2.15;;
60318;SDS011;46163;52.306;5.634;2022-12-18T04:14:54;2.20;;;2.00;;
60318;SDS011;46163;52.306;5.634;2022-12-18T04:17:20;2.50;;;2.25;;
60318;SDS011;46163;52.306;5.634;2022-12-18T04:19:46;3.65;;;2.40;;
60318;SDS011;46163;52.306;5.634;2022-12-18T04:22:11;2.38;;;2.17;;
60318;SDS011;46163;52.306;5.634;2022-12-18T04:24:37;2.40;;;2.05;;
60318;SDS011;46163;52.306;5.634;2022-12-18T04:27:05;2.75;;;2.22;;
60318;SDS011;46163;52.306;5.634;2022-12-18T04:29:30;3.13;;;2.28;;
60318;SDS011;46163;52.306;5.634;2022-12-18T04:31:56;2.42;;;2.22;;
60318;SDS011;46163;52.306;5.634;2022-12-18T04:34:22;2.13;;;1.92;;
60318;SDS011;46163;52.306;5.634;2022-12-18T04:36:47;3.33;;;2.30;;
60318;SDS011;46163;52.306;5.634;2022-12-18T04:39:13;2.35;;;2.05;;
60318;SDS011;46163;52.306;5.634;2022-12-18T04:41:39;2.22;;;2.03;;
60318;SDS011;46163;52.306;5.634;2022-12-18T04:44:06;2.20;;;2.00;;
60318;SDS011;46163;52.306;5.634;2022-12-18T04:46:31;2.70;;;2.25;;
60318;SDS011;46163;52.306;5.634;2022-12-18T04:48:57;2.38;;;2.17;;
60318;SDS011;46163;52.306;5.634;2022-12-18T04:51:22;2.40;;;2.20;;
60318;SDS011;46163;52.306;5.634;2022-12-18T04:53:49;2.80;;;2.10;;
60318;SDS011;46163;52.306;5.634;2022-12-18T04:56:15;2.28;;;2.05;;
60318;SDS011;46163;52.306;5.634;2022-12-18T04:58:41;2.28;;;2.08;;
60318;SDS011;46163;52.306;5.634;2022-12-18T05:01:09;2.03;;;1.83;;
60318;SDS011;46163;52.306;5.634;2022-12-18T05:03:36;2.90;;;2.17;;
60318;SDS011;46163;52.306;5.634;2022-12-18T05:06:02;2.13;;;1.92;;
60318;SDS011;46163;52.306;5.634;2022-12-18T05:08:28;2.83;;;2.20;;
60318;SDS011;46163;52.306;5.634;2022-12-18T05:11:11;2.33;;;1.88;;
60318;SDS011;46163;52.306;5.634;2022-12-18T05:13:42;3.15;;;2.00;;
60318;SDS011;46163;52.306;5.634;2022-12-18T05:16:09;2.42;;;2.03;;
60318;SDS011;46163;52.306;5.634;2022-12-18T05:18:35;2.30;;;2.10;;
60318;SDS011;46163;52.306;5.634;2022-12-18T05:21:01;2.22;;;1.90;;
60318;SDS011;46163;52.306;5.634;2022-12-18T05:23:28;2.22;;;2.00;;
60318;SDS011;46163;52.306;5.634;2022-12-18T05:25:54;2.03;;;1.90;;
60318;SDS011;46163;52.306;5.634;2022-12-18T05:28:24;2.42;;;2.00;;
60318;SDS011;46163;52.306;5.634;2022-12-18T05:30:52;2.30;;;2.10;;
60318;SDS011;46163;52.306;5.634;2022-12-18T05:33:18;1.93;;;1.83;;
60318;SDS011;46163;52.306;5.634;2022-12-18T05:38:38;1.70;;;1.60;;
60318;SDS011;46163;52.306;5.634;2022-12-18T05:41:04;1.90;;;1.80;;
60318;SDS011;46163;52.306;5.634;2022-12-18T05:43:30;2.10;;;1.90;;
60318;SDS011;46163;52.306;5.634;2022-12-18T05:45:56;2.30;;;2.00;;
60318;SDS011;46163;52.306;5.634;2022-12-18T05:48:22;2.10;;;1.90;;
60318;SDS011;46163;52.306;5.634;2022-12-18T05:50:48;2.30;;;2.10;;
60318;SDS011;46163;52.306;5.634;2022-12-18T05:53:15;2.30;;;1.80;;
60318;SDS011;46163;52.306;5.634;2022-12-18T05:55:43;2.08;;;1.85;;
60318;SDS011;46163;52.306;5.634;2022-12-18T05:58:10;1.80;;;1.70;;
60318;SDS011;46163;52.306;5.634;2022-12-18T06:00:37;1.70;;;1.60;;
60318;SDS011;46163;52.306;5.634;2022-12-18T06:03:05;2.42;;;1.90;;
60318;SDS011;46163;52.306;5.634;2022-12-18T06:05:38;1.80;;;1.70;;
60318;SDS011;46163;52.306;5.634;2022-12-18T06:08:05;1.77;;;1.67;;
60318;SDS011;46163;52.306;5.634;2022-12-18T06:10:31;2.00;;;1.80;;
60318;SDS011;46163;52.306;5.634;2022-12-18T06:12:57;2.10;;;1.88;;
60318;SDS011;46163;52.306;5.634;2022-12-18T06:15:23;2.90;;;1.90;;
60318;SDS011;46163;52.306;5.634;2022-12-18T06:17:49;2.17;;;1.65;;
60318;SDS011;46163;52.306;5.634;2022-12-18T06:20:17;2.25;;;1.77;;
60318;SDS011;46163;52.306;5.634;2022-12-18T06:22:43;2.13;;;1.92;;
60318;SDS011;46163;52.306;5.634;2022-12-18T06:25:11;1.70;;;1.60;;
60318;SDS011;46163;52.306;5.634;2022-12-18T06:27:37;1.80;;;1.70;;
60318;SDS011;46163;52.306;5.634;2022-12-18T06:30:03;2.05;;;1.80;;
60318;SDS011;46163;52.306;5.634;2022-12-18T06:32:29;1.60;;;1.50;;
60318;SDS011;46163;52.306;5.634;2022-12-18T06:34:54;1.50;;;1.40;;
60318;SDS011;46163;52.306;5.634;2022-12-18T06:37:20;1.70;;;1.60;;
60318;SDS011;46163;52.306;5.634;2022-12-18T06:39:49;1.73;;;1.63;;
60318;SDS011;46163;52.306;5.634;2022-12-18T06:42:14;1.75;;;1.65;;
60318;SDS011;46163;52.306;5.634;2022-12-18T06:44:40;1.70;;;1.60;;
60318;SDS011;46163;52.306;5.634;2022-12-18T06:47:05;1.73;;;1.63;;
60318;SDS011;46163;52.306;5.634;2022-12-18T06:49:30;1.50;;;1.40;;
60318;SDS011;46163;52.306;5.634;2022-12-18T06:51:57;1.50;;;1.40;;
60318;SDS011;46163;52.306;5.634;2022-12-18T06:54:22;1.60;;;1.50;;
60318;SDS011;46163;52.306;5.634;2022-12-18T06:56:48;1.63;;;1.48;;
60318;SDS011;46163;52.306;5.634;2022-12-18T06:59:14;1.83;;;1.65;;
60318;SDS011;46163;52.306;5.634;2022-12-18T07:01:39;1.58;;;1.48;;
60318;SDS011;46163;52.306;5.634;2022-12-18T07:04:05;1.50;;;1.40;;
60318;SDS011;46163;52.306;5.634;2022-12-18T07:06:31;1.38;;;1.38;;
60318;SDS011;46163;52.306;5.634;2022-12-18T07:08:56;1.70;;;1.60;;
60318;SDS011;46163;52.306;5.634;2022-12-18T07:11:22;1.67;;;1.58;;
60318;SDS011;46163;52.306;5.634;2022-12-18T07:13:47;1.70;;;1.60;;
60318;SDS011;46163;52.306;5.634;2022-12-18T07:16:17;1.58;;;1.48;;
60318;SDS011;46163;52.306;5.634;2022-12-18T07:18:44;1.88;;;1.77;;
60318;SDS011;46163;52.306;5.634;2022-12-18T07:21:11;1.60;;;1.50;;
60318;SDS011;46163;52.306;5.634;2022-12-18T07:23:39;4.25;;;1.95;;
60318;SDS011;46163;52.306;5.634;2022-12-18T07:26:06;1.60;;;1.50;;
60318;SDS011;46163;52.306;5.634;2022-12-18T07:28:34;2.20;;;1.70;;
60318;SDS011;46163;52.306;5.634;2022-12-18T07:31:04;1.40;;;1.30;;
60318;SDS011;46163;52.306;5.634;2022-12-18T07:33:31;1.50;;;1.40;;
60318;SDS011;46163;52.306;5.634;2022-12-18T07:35:58;1.88;;;1.50;;
60318;SDS011;46163;52.306;5.634;2022-12-18T07:38:34;1.52;;;1.42;;
60318;SDS011;46163;52.306;5.634;2022-12-18T07:41:01;1.55;;;1.45;;
60318;SDS011;46163;52.306;5.634;2022-12-18T07:43:28;1.65;;;1.50;;
60318;SDS011;46163;52.306;5.634;2022-12-18T07:45:54;1.60;;;1.50;;
60318;SDS011;46163;52.306;5.634;2022-12-18T07:48:19;1.50;;;1.40;;
60318;SDS011;46163;52.306;5.634;2022-12-18T07:53:13;1.42;;;1.33;;
60318;SDS011;46163;52.306;5.634;2022-12-18T07:55:39;1.60;;;1.50;;
60318;SDS011;46163;52.306;5.634;2022-12-18T07:58:06;1.50;;;1.40;;
60318;SDS011;46163;52.306;5.634;2022-12-18T08:00:32;1.50;;;1.40;;
60318;SDS011;46163;52.306;5.634;2022-12-18T08:02:59;1.65;;;1.55;;
60318;SDS011;46163;52.306;5.634;2022-12-18T08:05:25;1.40;;;1.30;;
60318;SDS011;46163;52.306;5.634;2022-12-18T08:07:51;1.38;;;1.27;;
60318;SDS011;46163;52.306;5.634;2022-12-18T08:10:16;1.35;;;1.30;;
60318;SDS011;46163;52.306;5.634;2022-12-18T08:12:42;1.60;;;1.50;;
60318;SDS011;46163;52.306;5.634;2022-12-18T08:15:08;1.50;;;1.40;;
60318;SDS011;46163;52.306;5.634;2022-12-18T08:17:33;1.50;;;1.40;;
60318;SDS011;46163;52.306;5.634;2022-12-18T08:19:59;1.40;;;1.30;;
60318;SDS011;46163;52.306;5.634;2022-12-18T08:22:24;1.98;;;1.40;;
60318;SDS011;46163;52.306;5.634;2022-12-18T08:24:50;1.48;;;1.38;;
60318;SDS011;46163;52.306;5.634;2022-12-18T08:27:15;1.20;;;1.20;;
60318;SDS011;46163;52.306;5.634;2022-12-18T08:29:41;1.42;;;1.30;;
60318;SDS011;46163;52.306;5.634;2022-12-18T08:32:06;1.40;;;1.30;;
60318;SDS011;46163;52.306;5.634;2022-12-18T08:34:32;1.23;;;1.23;;
60318;SDS011;46163;52.306;5.634;2022-12-18T08:36:57;1.20;;;1.20;;
60318;SDS011;46163;52.306;5.634;2022-12-18T08:39:23;1.45;;;1.35;;
60318;SDS011;46163;52.306;5.634;2022-12-18T08:41:48;1.30;;;1.30;;
60318;SDS011;46163;52.306;5.634;2022-12-18T08:44:34;1.70;;;1.60;;
60318;SDS011;46163;52.306;5.634;2022-12-18T08:47:04;1.40;;;1.30;;
60318;SDS011;46163;52.306;5.634;2022-12-18T08:49:31;1.50;;;1.40;;
60318;SDS011;46163;52.306;5.634;2022-12-18T08:51:56;2.38;;;1.42;;
60318;SDS011;46163;52.306;5.634;2022-12-18T08:54:22;1.42;;;1.35;;
60318;SDS011;46163;52.306;5.634;2022-12-18T08:56:49;1.60;;;1.50;;
60318;SDS011;46163;52.306;5.634;2022-12-18T08:59:15;1.52;;;1.42;;
60318;SDS011;46163;52.306;5.634;2022-12-18T09:01:41;2.15;;;1.42;;
60318;SDS011;46163;52.306;5.634;2022-12-18T09:04:07;1.65;;;1.55;;
60318;SDS011;46163;52.306;5.634;2022-12-18T09:06:34;1.73;;;1.60;;
60318;SDS011;46163;52.306;5.634;2022-12-18T09:09:08;2.50;;;1.80;;
60318;SDS011;46163;52.306;5.634;2022-12-18T09:11:34;1.33;;;1.23;;
60318;SDS011;46163;52.306;5.634;2022-12-18T09:14:01;1.70;;;1.60;;
60318;SDS011;46163;52.306;5.634;2022-12-18T09:16:27;2.20;;;1.60;;
60318;SDS011;46163;52.306;5.634;2022-12-18T09:18:57;1.92;;;1.70;;
60318;SDS011;46163;52.306;5.634;2022-12-18T09:21:35;1.60;;;1.50;;
60318;SDS011;46163;52.306;5.634;2022-12-18T09:24:04;2.78;;;1.48;;
60318;SDS011;46163;52.306;5.634;2022-12-18T09:26:30;9.40;;;1.60;;
60318;SDS011;46163;52.306;5.634;2022-12-18T09:28:56;2.13;;;1.90;;
60318;SDS011;46163;52.306;5.634;2022-12-18T09:31:22;1.63;;;1.42;;
60318;SDS011;46163;52.306;5.634;2022-12-18T09:33:49;1.60;;;1.50;;
60318;SDS011;46163;52.306;5.634;2022-12-18T09:36:16;1.65;;;1.55;;
60318;SDS011;46163;52.306;5.634;2022-12-18T09:38:43;1.73;;;1.63;;
60318;SDS011;46163;52.306;5.634;2022-12-18T09:44:16;1.58;;;1.48;;
60318;SDS011;46163;52.306;5.634;2022-12-18T09:49:17;3.70;;;1.50;;
60318;SDS011;46163;52.306;5.634;2022-12-18T09:54:41;2.47;;;1.52;;
60318;SDS011;46163;52.306;5.634;2022-12-18T09:57:16;1.50;;;1.40;;
60318;SDS011;46163;52.306;5.634;2022-12-18T09:59:54;1.35;;;1.23;;
60318;SDS011;46163;52.306;5.634;2022-12-18T10:05:04;1.50;;;1.40;;
60318;SDS011;46163;52.306;5.634;2022-12-18T10:10:50;1.67;;;1.58;;
60318;SDS011;46163;52.306;5.634;2022-12-18T10:24:33;1.77;;;1.65;;
60318;SDS011;46163;52.306;5.634;2022-12-18T10:27:11;1.83;;;1.60;;
60318;SDS011;46163;52.306;5.634;2022-12-18T10:29:41;1.80;;;1.70;;
60318;SDS011;46163;52.306;5.634;2022-12-18T10:32:16;2.28;;;1.70;;
60318;SDS011;46163;52.306;5.634;2022-12-18T10:34:48;1.92;;;1.80;;
60318;SDS011;46163;52.306;5.634;2022-12-18T10:37:17;1.63;;;1.52;;
60318;SDS011;46163;52.306;5.634;2022-12-18T10:39:45;1.88;;;1.70;;
60318;SDS011;46163;52.306;5.634;2022-12-18T10:42:29;1.60;;;1.50;;
60318;SDS011;46163;52.306;5.634;2022-12-18T10:45:02;1.90;;;1.70;;
60318;SDS011;46163;52.306;5.634;2022-12-18T10:47:33;2.30;;;1.58;;
60318;SDS011;46163;52.306;5.634;2022-12-18T10:49:59;1.80;;;1.70;;
60318;SDS011;46163;52.306;5.634;2022-12-18T10:52:25;2.10;;;1.90;;
60318;SDS011;46163;52.306;5.634;2022-12-18T10:55:01;1.80;;;1.70;;
60318;SDS011;46163;52.306;5.634;2022-12-18T10:57:33;2.83;;;2.00;;
60318;SDS011;46163;52.306;5.634;2022-12-18T11:00:20;2.20;;;2.00;;
60318;SDS011;46163;52.306;5.634;2022-12-18T11:02:48;3.33;;;2.25;;
60318;SDS011;46163;52.306;5.634;2022-12-18T11:05:28;2.13;;;1.92;;
60318;SDS011;46163;52.306;5.634;2022-12-18T11:07:59;3.42;;;2.47;;
60318;SDS011;46163;52.306;5.634;2022-12-18T11:10:28;3.67;;;2.88;;
60318;SDS011;46163;52.306;5.634;2022-12-18T11:13:12;4.03;;;2.65;;
60318;SDS011;46163;52.306;5.634;2022-12-18T11:15:43;2.80;;;2.50;;
60318;SDS011;46163;52.306;5.634;2022-12-18T11:18:43;3.13;;;2.45;;
60318;SDS011;46163;52.306;5.634;2022-12-18T11:21:20;2.90;;;2.60;;
60318;SDS011;46163;52.306;5.634;2022-12-18T11:23:50;2.70;;;2.33;;
60318;SDS011;46163;52.306;5.634;2022-12-18T11:26:16;2.92;;;2.35;;
60318;SDS011;46163;52.306;5.634;2022-12-18T11:31:27;2.60;;;2.40;;
60318;SDS011;46163;52.306;5.634;2022-12-18T11:36:35;2.92;;;2.17;;
60318;SDS011;46163;52.306;5.634;2022-12-18T11:39:40;2.45;;;2.25;;
60318;SDS011;46163;52.306;5.634;2022-12-18T11:44:38;2.40;;;2.15;;
60318;SDS011;46163;52.306;5.634;2022-12-18T11:47:11;2.90;;;2.20;;
60318;SDS011;46163;52.306;5.634;2022-12-18T11:49:45;2.42;;;2.10;;
60318;SDS011;46163;52.306;5.634;2022-12-18T11:54:40;2.00;;;1.90;;
60318;SDS011;46163;52.306;5.634;2022-12-18T12:05:36;2.08;;;1.85;;
60318;SDS011;46163;52.306;5.634;2022-12-18T12:08:20;2.83;;;2.03;;
60318;SDS011;46163;52.306;5.634;2022-12-18T12:13:41;3.15;;;1.90;;
60318;SDS011;46163;52.306;5.634;2022-12-18T12:21:28;2.45;;;1.70;;
60318;SDS011;46163;52.306;5.634;2022-12-18T12:29:56;4.10;;;1.98;;
60318;SDS011;46163;52.306;5.634;2022-12-18T12:38:06;2.70;;;1.75;;
60318;SDS011;46163;52.306;5.634;2022-12-18T12:40:52;1.90;;;1.80;;
60318;SDS011;46163;52.306;5.634;2022-12-18T12:46:03;2.38;;;1.65;;
60318;SDS011;46163;52.306;5.634;2022-12-18T12:51:08;1.60;;;1.50;;
60318;SDS011;46163;52.306;5.634;2022-12-18T12:53:38;1.63;;;1.52;;
60318;SDS011;46163;52.306;5.634;2022-12-18T12:56:04;1.70;;;1.60;;
60318;SDS011;46163;52.306;5.634;2022-12-18T12:58:36;2.47;;;1.80;;
60318;SDS011;46163;52.306;5.634;2022-12-18T13:01:25;2.47;;;1.67;;
60318;SDS011;46163;52.306;5.634;2022-12-18T13:07:12;1.73;;;1.55;;
60318;SDS011;46163;52.306;5.634;2022-12-18T13:15:32;1.92;;;1.70;;
60318;SDS011;46163;52.306;5.634;2022-12-18T13:23:27;4.00;;;1.92;;
60318;SDS011;46163;52.306;5.634;2022-12-18T13:25:56;1.75;;;1.63;;
60318;SDS011;46163;52.306;5.634;2022-12-18T13:38:41;2.28;;;1.60;;
60318;SDS011;46163;52.306;5.634;2022-12-18T13:43:45;1.50;;;1.40;;
60318;SDS011;46163;52.306;5.634;2022-12-18T13:46:28;2.17;;;1.70;;
60318;SDS011;46163;52.306;5.634;2022-12-18T13:51:39;2.20;;;1.70;;
60318;SDS011;46163;52.306;5.634;2022-12-18T13:54:17;1.48;;;1.38;;
60318;SDS011;46163;52.306;5.634;2022-12-18T13:56:46;1.35;;;1.25;;
60318;SDS011;46163;52.306;5.634;2022-12-18T14:01:55;1.60;;;1.50;;
60318;SDS011;46163;52.306;5.634;2022-12-18T14:04:30;1.85;;;1.52;;
60318;SDS011;46163;52.306;5.634;2022-12-18T14:09:55;1.38;;;1.23;;
60318;SDS011;46163;52.306;5.634;2022-12-18T14:12:30;1.52;;;1.40;;
60318;SDS011;46163;52.306;5.634;2022-12-18T14:17:53;1.87;;;1.60;;
60318;SDS011;46163;52.306;5.634;2022-12-18T14:20:19;1.60;;;1.33;;
60318;SDS011;46163;52.306;5.634;2022-12-18T14:22:45;1.67;;;1.58;;
60318;SDS011;46163;52.306;5.634;2022-12-18T14:27:45;1.67;;;1.40;;
60318;SDS011;46163;52.306;5.634;2022-12-18T14:30:32;1.40;;;1.30;;
60318;SDS011;46163;52.306;5.634;2022-12-18T14:33:12;1.60;;;1.50;;
60318;SDS011;46163;52.306;5.634;2022-12-18T14:35:40;1.50;;;1.40;;
60318;SDS011;46163;52.306;5.634;2022-12-18T14:38:40;1.60;;;1.50;;
60318;SDS011;46163;52.306;5.634;2022-12-18T14:41:10;1.50;;;1.40;;
60318;SDS011;46163;52.306;5.634;2022-12-18T14:43:39;1.23;;;1.23;;
60318;SDS011;46163;52.306;5.634;2022-12-18T14:46:29;1.50;;;1.40;;
60318;SDS011;46163;52.306;5.634;2022-12-18T14:49:17;1.48;;;1.38;;
60318;SDS011;46163;52.306;5.634;2022-12-18T14:51:50;3.30;;;1.60;;
60318;SDS011;46163;52.306;5.634;2022-12-18T14:54:22;1.55;;;1.30;;
60318;SDS011;46163;52.306;5.634;2022-12-18T14:56:49;1.42;;;1.33;;
60318;SDS011;46163;52.306;5.634;2022-12-18T14:59:22;1.25;;;1.20;;
60318;SDS011;46163;52.306;5.634;2022-12-18T15:01:59;2.00;;;1.70;;
60318;SDS011;46163;52.306;5.634;2022-12-18T15:05:34;4.00;;;1.98;;
60318;SDS011;46163;52.306;5.634;2022-12-18T15:07:41;2.10;;;1.65;;
60318;SDS011;46163;52.306;5.634;2022-12-18T15:10:12;3.53;;;2.08;;
60318;SDS011;46163;52.306;5.634;2022-12-18T15:20:54;2.30;;;2.10;;
60318;SDS011;46163;52.306;5.634;2022-12-18T15:25:57;1.85;;;1.70;;
60318;SDS011;46163;52.306;5.634;2022-12-18T15:36:10;1.92;;;1.83;;
60318;SDS011;46163;52.306;5.634;2022-12-18T15:38:39;1.95;;;1.83;;
60318;SDS011;46163;52.306;5.634;2022-12-18T15:41:05;2.90;;;2.05;;
60318;SDS011;46163;52.306;5.634;2022-12-18T15:43:37;2.35;;;2.13;;
60318;SDS011;46163;52.306;5.634;2022-12-18T15:46:07;2.05;;;1.95;;
60318;SDS011;46163;52.306;5.634;2022-12-18T15:48:46;2.70;;;2.17;;
60318;SDS011;46163;52.306;5.634;2022-12-18T15:51:18;3.60;;;2.20;;
60318;SDS011;46163;52.306;5.634;2022-12-18T15:53:47;2.92;;;2.20;;
60318;SDS011;46163;52.306;5.634;2022-12-18T15:56:18;2.22;;;2.03;;
60318;SDS011;46163;52.306;5.634;2022-12-18T15:59:04;3.45;;;2.42;;
60318;SDS011;46163;52.306;5.634;2022-12-18T16:01:40;2.83;;;2.20;;
60318;SDS011;46163;52.306;5.634;2022-12-18T16:04:09;3.65;;;2.17;;
60318;SDS011;46163;52.306;5.634;2022-12-18T16:06:36;2.58;;;2.20;;
60318;SDS011;46163;52.306;5.634;2022-12-18T16:09:02;4.78;;;2.10;;
60318;SDS011;46163;52.306;5.634;2022-12-18T16:11:28;2.42;;;2.10;;
60318;SDS011;46163;52.306;5.634;2022-12-18T16:16:52;2.72;;;2.10;;
60318;SDS011;46163;52.306;5.634;2022-12-18T16:19:19;2.38;;;2.10;;
60318;SDS011;46163;52.306;5.634;2022-12-18T16:22:05;2.58;;;2.20;;
60318;SDS011;46163;52.306;5.634;2022-12-18T16:24:40;2.95;;;2.08;;
60318;SDS011;46163;52.306;5.634;2022-12-18T16:27:07;2.20;;;2.00;;
60318;SDS011;46163;52.306;5.634;2022-12-18T16:29:34;2.03;;;1.80;;
60318;SDS011;46163;52.306;5.634;2022-12-18T16:32:00;2.10;;;1.90;;
60318;SDS011;46163;52.306;5.634;2022-12-18T16:34:26;2.05;;;1.85;;
60318;SDS011;46163;52.306;5.634;2022-12-18T16:36:55;4.07;;;2.38;;
60318;SDS011;46163;52.306;5.634;2022-12-18T16:39:22;2.40;;;1.90;;
60318;SDS011;46163;52.306;5.634;2022-12-18T16:41:48;2.92;;;1.95;;
60318;SDS011;46163;52.306;5.634;2022-12-18T16:44:14;1.90;;;1.80;;
60318;SDS011;46163;52.306;5.634;2022-12-18T16:46:40;2.63;;;2.10;;
60318;SDS011;46163;52.306;5.634;2022-12-18T16:49:13;2.00;;;1.80;;
60318;SDS011;46163;52.306;5.634;2022-12-18T16:51:39;2.00;;;1.80;;
60318;SDS011;46163;52.306;5.634;2022-12-18T16:54:05;1.80;;;1.70;;
60318;SDS011;46163;52.306;5.634;2022-12-18T16:56:31;1.70;;;1.60;;
60318;SDS011;46163;52.306;5.634;2022-12-18T16:58:57;2.05;;;1.85;;
60318;SDS011;46163;52.306;5.634;2022-12-18T17:01:25;2.15;;;1.70;;
60318;SDS011;46163;52.306;5.634;2022-12-18T17:04:00;2.45;;;1.77;;
60318;SDS011;46163;52.306;5.634;2022-12-18T17:06:28;2.92;;;2.00;;
60318;SDS011;46163;52.306;5.634;2022-12-18T17:08:57;1.92;;;1.60;;
60318;SDS011;46163;52.306;5.634;2022-12-18T17:11:25;2.20;;;1.70;;
60318;SDS011;46163;52.306;5.634;2022-12-18T17:13:52;1.52;;;1.42;;
60318;SDS011;46163;52.306;5.634;2022-12-18T17:16:21;1.70;;;1.60;;
60318;SDS011;46163;52.306;5.634;2022-12-18T17:18:48;1.70;;;1.60;;
60318;SDS011;46163;52.306;5.634;2022-12-18T17:21:14;1.90;;;1.75;;
60318;SDS011;46163;52.306;5.634;2022-12-18T17:23:40;1.75;;;1.65;;
60318;SDS011;46163;52.306;5.634;2022-12-18T17:26:07;2.25;;;2.05;;
60318;SDS011;46163;52.306;5.634;2022-12-18T17:28:34;2.03;;;1.80;;
60318;SDS011;46163;52.306;5.634;2022-12-18T17:31:01;1.77;;;1.67;;
60318;SDS011;46163;52.306;5.634;2022-12-18T17:33:37;1.55;;;1.45;;
60318;SDS011;46163;52.306;5.634;2022-12-18T17:36:03;4.75;;;1.67;;
60318;SDS011;46163;52.306;5.634;2022-12-18T17:38:29;1.60;;;1.50;;
60318;SDS011;46163;52.306;5.634;2022-12-18T17:40:59;1.60;;;1.50;;
60318;SDS011;46163;52.306;5.634;2022-12-18T17:43:25;2.22;;;1.85;;
60318;SDS011;46163;52.306;5.634;2022-12-18T17:45:51;2.92;;;1.60;;
60318;SDS011;46163;52.306;5.634;2022-12-18T17:48:20;1.50;;;1.40;;
60318;SDS011;46163;52.306;5.634;2022-12-18T17:50:45;1.50;;;1.40;;
60318;SDS011;46163;52.306;5.634;2022-12-18T17:53:11;1.60;;;1.50;;
60318;SDS011;46163;52.306;5.634;2022-12-18T17:55:36;10.98;;;1.70;;
60318;SDS011;46163;52.306;5.634;2022-12-18T17:58:02;1.60;;;1.50;;